Time;durP1;ratioP1;P1;durP2;ratioP2;P2;SDS_P1;SDS_P2;PMS_P1;PMS_P2;Temp;Humidity;BMP_temperature;BMP_pressure;BME280_temperature;BME280_humidity;BME280_pressure;Samples;Min_cycle;Max_cycle;Signal;HPM_P1;HPM_P2
2023/09/07 00:05:19;;;;;;;5.78;2.85;;;;;;;23.38;47.66;101789.88;16116877;19;131023;-70
2023/09/07 00:10:41;;;;;;;7.57;3.60;;;;;;;23.37;47.65;101782.59;16117589;19;129409;-69
2023/09/07 00:16:04;;;;;;;6.68;3.65;;;;;;;23.37;47.40;101768.63;16123194;19;130706;-69
2023/09/07 00:21:26;;;;;;;4.70;3.00;;;;;;;23.35;47.43;101775.31;16124111;19;130841;-69
2023/09/07 00:26:48;;;;;;;6.32;2.95;;;;;;;23.35;47.58;101772.53;16128218;19;131088;-69
2023/09/07 00:32:10;;;;;;;8.27;3.10;;;;;;;23.34;47.62;101770.84;16121385;19;130258;-69
2023/09/07 00:37:33;;;;;;;4.75;2.90;;;;;;;23.33;47.85;101771.94;16121194;19;130895;-70
2023/09/07 00:42:55;;;;;;;4.57;3.10;;;;;;;23.33;47.58;101771.94;16122435;19;130705;-70
2023/09/07 00:48:17;;;;;;;4.95;3.22;;;;;;;23.33;47.82;101765.50;16123072;19;129701;-69
2023/09/07 00:53:40;;;;;;;4.75;2.90;;;;;;;23.32;47.35;101764.66;16121416;19;130153;-69
2023/09/07 00:59:03;;;;;;;5.18;3.30;;;;;;;23.31;47.24;101774.13;16121717;19;131055;-69
2023/09/07 01:04:25;;;;;;;7.38;2.90;;;;;;;23.30;47.86;101761.28;16121220;19;131458;-69
2023/09/07 01:09:54;;;;;;;5.25;3.10;;;;;;;23.32;47.48;101758.25;16121256;19;131305;-69
2023/09/07 01:15:16;;;;;;;4.70;2.92;;;;;;;23.30;47.66;101755.69;16182596;19;128871;-70
2023/09/07 01:20:40;;;;;;;4.70;3.00;;;;;;;23.30;47.50;101752.91;16190116;19;130999;-71
2023/09/07 01:26:05;;;;;;;4.30;3.13;;;;;;;23.29;47.43;101742.00;16193976;19;129084;-69
2023/09/07 01:31:28;;;;;;;6.80;3.60;;;;;;;23.27;47.47;101739.44;16152282;19;130497;-69
2023/09/07 01:36:50;;;;;;;4.05;2.90;;;;;;;23.28;47.83;101738.34;16201598;19;129781;-68
2023/09/07 01:42:12;;;;;;;4.50;2.83;;;;;;;23.27;47.33;101745.03;16200533;19;128290;-69
2023/09/07 01:47:34;;;;;;;5.47;3.67;;;;;;;23.27;47.54;101744.19;16200523;19;128773;-70
2023/09/07 01:52:56;;;;;;;4.85;2.80;;;;;;;23.26;47.42;101740.59;16201094;19;130479;-69
2023/09/07 01:58:18;;;;;;;8.05;3.40;;;;;;;23.27;47.42;101744.19;16198809;19;130854;-70
2023/09/07 02:03:40;;;;;;;6.40;3.20;;;;;;;23.25;47.53;101746.41;16197620;19;129498;-71
2023/09/07 02:09:04;;;;;;;4.20;3.20;;;;;;;23.24;47.20;101751.16;16200282;19;128488;-71
2023/09/07 02:14:26;;;;;;;7.25;3.05;;;;;;;23.24;47.22;101751.16;16198268;19;129909;-72
2023/09/07 02:19:48;;;;;;;6.32;3.30;;;;;;;23.24;47.63;101751.16;16195696;19;128660;-71
2023/09/07 02:25:10;;;;;;;6.68;2.97;;;;;;;23.23;47.55;101743.88;16201715;19;128735;-73
2023/09/07 02:30:32;;;;;;;5.38;3.28;;;;;;;23.23;47.34;101741.09;16197010;19;129789;-72
2023/09/07 02:35:55;;;;;;;6.28;3.60;;;;;;;23.22;47.38;101747.78;16186966;19;129428;-73
2023/09/07 02:41:17;;;;;;;4.80;3.30;;;;;;;23.22;47.74;101736.59;16118043;19;129091;-74
2023/09/07 02:46:39;;;;;;;3.63;2.35;;;;;;;23.21;47.76;101740.50;16116212;19;129597;-74
2023/09/07 02:52:01;;;;;;;5.97;3.05;;;;;;;23.20;47.64;101750.81;16114158;19;130099;-75
2023/09/07 02:57:23;;;;;;;5.47;2.97;;;;;;;23.20;48.00;101745.22;16117332;19;129319;-76
2023/09/07 03:02:45;;;;;;;4.63;3.00;;;;;;;23.20;47.31;101741.59;16128963;19;129387;-76
2023/09/07 03:08:07;;;;;;;4.93;2.70;;;;;;;23.19;48.01;101748.28;16129749;19;130460;-78
2023/09/07 03:13:29;;;;;;;3.25;2.80;;;;;;;23.19;47.78;101748.28;16129752;19;129799;-78
2023/09/07 03:18:51;;;;;;;4.57;2.92;;;;;;;23.18;47.57;101741.00;16131379;19;129590;-77
2023/09/07 03:24:15;;;;;;;5.20;2.50;;;;;;;23.17;47.68;101751.34;16129034;19;131492;-77
2023/09/07 03:29:38;;;;;;;4.38;2.70;;;;;;;23.16;47.71;101741.28;16129700;19;129492;-76
2023/09/07 03:35:00;;;;;;;4.15;3.10;;;;;;;23.16;47.52;101740.41;16129893;19;129591;-77
2023/09/07 03:40:23;;;;;;;3.72;2.50;;;;;;;23.15;47.89;101747.09;16127366;19;130746;-76
2023/09/07 03:45:44;;;;;;;3.42;2.90;;;;;;;23.14;47.62;101746.25;16130532;19;129408;-77
2023/09/07 03:51:07;;;;;;;3.17;2.75;;;;;;;23.13;47.56;101746.53;16135981;19;129891;-76
2023/09/07 03:56:28;;;;;;;5.38;2.65;;;;;;;23.13;47.61;101743.75;16129900;19;130158;-76
2023/09/07 04:01:50;;;;;;;3.45;2.80;;;;;;;23.12;47.60;101744.84;16130571;19;129747;-77
2023/09/07 04:07:12;;;;;;;4.68;3.00;;;;;;;23.13;47.62;101743.75;16130943;19;129422;-78
2023/09/07 04:12:34;;;;;;;3.03;2.45;;;;;;;23.11;47.79;101740.34;16129994;19;129567;-77
2023/09/07 04:17:57;;;;;;;4.15;2.47;;;;;;;23.11;47.65;101737.56;16130840;19;131120;-77
2023/09/07 04:23:19;;;;;;;3.63;2.50;;;;;;;23.10;47.62;101745.09;16132510;19;131104;-77
2023/09/07 04:28:41;;;;;;;2.60;2.40;;;;;;;23.09;47.74;101745.34;16131990;19;129500;-77
2023/09/07 04:34:03;;;;;;;4.38;2.60;;;;;;;23.09;47.71;101748.13;16130775;19;129418;-77
2023/09/07 04:39:25;;;;;;;3.35;2.55;;;;;;;23.08;47.60;101747.28;16131073;19;129419;-77
2023/09/07 04:44:47;;;;;;;4.07;3.03;;;;;;;23.08;47.74;101746.44;16131148;19;129472;-78
2023/09/07 04:50:10;;;;;;;3.67;2.90;;;;;;;23.07;47.50;101753.13;16128123;19;130007;-77
2023/09/07 04:55:37;;;;;;;4.25;2.50;;;;;;;23.07;47.85;101755.91;16136157;19;129582;-76
2023/09/07 05:01:03;;;;;;;2.60;2.30;;;;;;;23.06;47.91;101746.72;16128291;19;130057;-76
2023/09/07 05:06:26;;;;;;;2.90;2.50;;;;;;;23.05;47.64;101754.22;16127191;19;131321;-77
2023/09/07 05:11:48;;;;;;;4.22;2.78;;;;;;;23.04;47.76;101758.13;16124571;19;129629;-75
2023/09/07 05:17:10;;;;;;;2.95;2.55;;;;;;;23.03;47.71;101761.19;16120008;19;129803;-64
2023/09/07 05:22:36;;;;;;;10.65;4.55;;;;;;;22.99;47.06;101774.81;16121162;19;129679;-60
2023/09/07 05:27:58;;;;;;;8.02;4.55;;;;;;;22.95;46.92;101770.81;16122198;19;129438;-72
2023/09/07 05:33:20;;;;;;;6.45;3.90;;;;;;;22.96;46.69;101788.41;16126034;19;129976;-72
2023/09/07 05:38:42;;;;;;;8.07;4.45;;;;;;;22.96;46.92;101800.41;16126558;19;128986;-73
2023/09/07 05:44:04;;;;;;;6.47;3.92;;;;;;;22.96;47.19;101797.63;16130144;19;129237;-73
2023/09/07 05:49:26;;;;;;;5.57;3.70;;;;;;;22.96;46.92;101803.22;16123367;19;129240;-74
2023/09/07 05:54:48;;;;;;;9.90;4.03;;;;;;;22.96;46.82;101806.00;16122116;19;129245;-72
2023/09/07 06:00:10;;;;;;;6.47;4.13;;;;;;;22.97;46.46;101802.13;16123469;19;128874;-73
2023/09/07 06:05:33;;;;;;;5.55;3.42;;;;;;;22.97;46.96;101802.13;16124939;19;128953;-74
2023/09/07 06:10:55;;;;;;;6.22;3.60;;;;;;;22.97;46.98;101807.69;16124643;19;129121;-75
2023/09/07 06:16:17;;;;;;;12.77;3.95;;;;;;;22.97;46.70;101806.84;16123313;19;130014;-74
2023/09/07 06:21:40;;;;;;;6.30;3.80;;;;;;;22.97;46.62;101804.03;16128286;19;129392;-76
2023/09/07 06:27:02;;;;;;;6.20;3.83;;;;;;;22.97;46.86;101807.69;16126225;19;129470;-76
2023/09/07 06:32:24;;;;;;;9.20;4.05;;;;;;;22.97;46.91;101806.84;16125912;19;130101;-76
2023/09/07 06:37:46;;;;;;;6.22;4.25;;;;;;;22.97;46.91;101807.69;16126006;19;129753;-77
2023/09/07 06:43:08;;;;;;;6.03;3.90;;;;;;;22.98;46.79;101811.31;16127269;19;129655;-77
2023/09/07 06:48:30;;;;;;;7.47;3.65;;;;;;;22.99;46.68;101804.63;16125015;19;129436;-77
2023/09/07 06:53:52;;;;;;;5.20;3.47;;;;;;;22.98;47.02;101803.81;16122988;19;130198;-76
2023/09/07 06:59:18;;;;;;;7.35;3.58;;;;;;;22.98;46.69;101809.38;16126113;19;129367;-78
2023/09/07 07:04:40;;;;;;;6.18;3.80;;;;;;;23.00;46.47;101812.78;16120956;19;129354;-77
2023/09/07 07:10:03;;;;;;;5.90;3.85;;;;;;;22.99;46.90;101811.09;16119579;19;129907;-78
2023/09/07 07:15:25;;;;;;;7.18;3.38;;;;;;;22.99;46.93;101805.50;16123674;19;129108;-77
2023/09/07 07:20:47;;;;;;;5.90;3.60;;;;;;;22.99;46.95;101797.13;16126122;19;129071;-79
2023/09/07 07:26:08;;;;;;;5.53;3.83;;;;;;;23.00;46.79;101797.97;16124816;19;129797;-78
2023/09/07 07:31:31;;;;;;;5.07;3.47;;;;;;;23.00;47.09;101804.41;16124428;19;129565;-79
2023/09/07 07:36:52;;;;;;;5.57;3.55;;;;;;;23.01;46.97;101800.50;16123062;19;129118;-79
2023/09/07 07:42:14;;;;;;;7.28;4.28;;;;;;;23.02;46.94;101792.97;16119967;19;129492;-77
2023/09/07 07:47:36;;;;;;;6.82;3.95;;;;;;;23.02;47.08;101796.59;16125832;19;130536;-76
2023/09/07 07:52:58;;;;;;;4.70;3.38;;;;;;;23.03;46.85;101787.13;16132093;19;131591;-77
2023/09/07 07:58:20;;;;;;;5.47;3.55;;;;;;;23.05;47.18;101782.13;16135594;19;129506;-78
2023/09/07 08:03:43;;;;;;;8.30;3.78;;;;;;;23.06;46.98;101788.59;16134932;19;129569;-77
2023/09/07 08:09:05;;;;;;;4.60;3.60;;;;;;;23.07;46.82;101781.03;16188526;19;131483;-77
2023/09/07 08:14:27;;;;;;;6.10;3.60;;;;;;;23.09;46.88;101776.06;16196343;19;129433;-77
2023/09/07 08:19:55;;;;;;;5.72;3.38;;;;;;;23.09;46.75;101781.63;16191653;19;130749;-78
2023/09/07 08:25:17;;;;;;;5.78;3.97;;;;;;;23.09;46.77;101764.88;16194293;19;131109;-76
2023/09/07 08:30:38;;;;;;;6.88;3.80;;;;;;;23.10;47.09;101772.16;16176763;19;129710;-78
2023/09/07 08:36:01;;;;;;;6.65;3.60;;;;;;;23.11;47.10;101762.69;16172890;19;130851;-78
2023/09/07 08:41:23;;;;;;;3.78;3.30;;;;;;;23.11;46.94;101766.31;16155386;19;129643;-75
2023/09/07 08:46:49;;;;;;;5.60;3.58;;;;;;;23.12;47.16;101769.97;16133020;19;130185;-74
2023/09/07 08:52:11;;;;;;;;;;;;;;;23.11;47.20;101762.69;16123448;19;129550;-60
2023/09/07 08:57:33;;;;;;;7.63;3.60;;;;;;;23.24;47.73;101758.66;16123424;19;129759;-56
2023/09/07 09:02:55;;;;;;;6.63;3.55;;;;;;;23.32;47.44;101753.50;16127990;19;129987;-65
2023/09/07 09:08:24;;;;;;;7.45;3.47;;;;;;;23.40;47.53;101749.41;16125461;19;129370;-68
2023/09/07 09:13:47;;;;;;;7.85;3.50;;;;;;;23.47;47.38;101752.00;16136397;19;129872;-59
2023/09/07 09:19:09;;;;;;;5.57;3.40;;;;;;;23.52;47.37;101752.06;16126466;19;129857;-68
2023/09/07 09:24:35;;;;;;;6.38;3.42;;;;;;;23.57;47.45;101757.72;16121784;19;129461;-66
2023/09/07 09:29:58;;;;;;;10.00;3.90;;;;;;;23.60;47.42;101760.03;16123089;19;129594;-62
2023/09/07 09:35:20;;;;;;;7.95;3.50;;;;;;;23.64;47.67;101751.97;16121582;19;130712;-64
2023/09/07 09:40:42;;;;;;;6.43;3.40;;;;;;;23.65;47.10;101750.88;16119749;19;129725;-65
2023/09/07 09:46:05;;;;;;;8.30;3.40;;;;;;;23.63;47.23;101747.47;16122253;19;130389;-65
2023/09/07 09:51:31;;;;;;;7.85;3.35;;;;;;;23.60;47.10;101746.06;16115737;19;131119;-65
2023/09/07 09:56:53;;;;;;;5.63;3.42;;;;;;;23.57;47.27;101737.34;16116881;19;130237;-65
2023/09/07 10:02:16;;;;;;;5.22;3.25;;;;;;;23.54;47.29;101733.09;16118074;19;129624;-64
2023/09/07 10:07:47;;;;;;;6.03;3.30;;;;;;;23.54;47.30;101727.50;16112479;19;129744;-65
2023/09/07 10:13:13;;;;;;;6.57;3.08;;;;;;;23.54;47.45;101732.25;16114117;19;129804;-65
2023/09/07 10:18:37;;;;;;;6.70;3.22;;;;;;;23.51;47.37;101728.88;16114414;19;129622;-64
2023/09/07 10:23:59;;;;;;;5.10;2.88;;;;;;;23.51;47.72;101728.03;16110716;19;129570;-64
2023/09/07 10:29:23;;;;;;;4.20;3.00;;;;;;;23.51;47.26;101728.03;16114262;19;129300;-63
2023/09/07 10:34:45;;;;;;;4.55;3.05;;;;;;;23.50;47.00;101721.59;16117556;19;129945;-65
2023/09/07 10:40:11;;;;;;;4.25;3.10;;;;;;;23.50;47.16;101704.03;16117629;19;129657;-63
2023/09/07 10:45:34;;;;;;;7.85;3.22;;;;;;;23.51;47.25;101716.84;16115426;19;129564;-63
2023/09/07 10:50:56;;;;;;;7.88;3.10;;;;;;;23.51;48.06;101716.84;16114956;19;129581;-63
2023/09/07 10:56:19;;;;;;;6.63;3.15;;;;;;;23.53;47.78;101709.06;16114133;19;130348;-63
2023/09/07 11:01:44;;;;;;;3.72;3.05;;;;;;;23.53;47.66;101703.47;16111190;19;130464;-63
2023/09/07 11:07:06;;;;;;;4.60;2.78;;;;;;;23.53;47.49;101703.47;16111791;19;131125;-63
2023/09/07 11:12:29;;;;;;;5.20;2.35;;;;;;;23.54;47.47;101702.38;16104966;19;131014;-64
2023/09/07 11:17:52;;;;;;;3.85;2.75;;;;;;;23.56;47.38;101685.38;16111164;19;129479;-64
2023/09/07 11:23:14;;;;;;;5.30;2.60;;;;;;;23.57;47.08;101687.88;16125823;19;130980;-63
2023/09/07 11:28:37;;;;;;;4.50;2.13;;;;;;;23.59;47.10;101685.72;16124494;19;129612;-63
2023/09/07 11:33:59;;;;;;;12.70;2.65;;;;;;;23.59;47.28;101682.94;16128618;19;131972;-63
2023/09/07 11:39:21;;;;;;;6.85;2.58;;;;;;;23.60;47.35;101686.53;16128370;19;129330;-63
2023/09/07 11:44:43;;;;;;;9.75;2.78;;;;;;;23.60;47.53;101686.53;16128104;19;131748;-63
2023/09/07 11:50:06;;;;;;;6.00;2.75;;;;;;;23.60;47.33;101676.22;16129559;19;129920;-63
2023/09/07 11:55:28;;;;;;;4.35;2.85;;;;;;;23.60;47.25;101676.22;16127874;19;134070;-63
2023/09/07 12:00:50;;;;;;;5.32;2.58;;;;;;;23.61;47.29;101663.09;16126998;19;130341;-62
2023/09/07 12:06:13;;;;;;;3.28;2.40;;;;;;;23.62;47.16;101665.66;16124788;19;129474;-63
2023/09/07 12:11:35;;;;;;;3.10;2.25;;;;;;;23.62;47.31;101657.28;16121433;19;132793;-63
2023/09/07 12:16:58;;;;;;;3.47;2.25;;;;;;;23.63;47.26;101652.50;16120404;19;129468;-63
2023/09/07 12:22:20;;;;;;;2.90;2.03;;;;;;;23.64;47.11;101649.44;16120505;19;129719;-63
2023/09/07 12:27:43;;;;;;;5.53;2.20;;;;;;;23.65;47.41;101633.53;16122463;19;129522;-63
2023/09/07 12:33:15;;;;;;;2.50;1.90;;;;;;;23.65;47.24;101645.53;16120551;19;129920;-63
2023/09/07 12:38:37;;;;;;;3.58;2.47;;;;;;;23.65;47.20;101634.38;16117219;19;131195;-63
2023/09/07 12:43:59;;;;;;;3.13;2.10;;;;;;;23.66;47.14;101641.66;16124850;19;129332;-63
2023/09/07 12:49:21;;;;;;;4.50;2.40;;;;;;;23.68;47.12;101633.03;16123086;19;130981;-63
2023/09/07 12:54:43;;;;;;;3.90;2.40;;;;;;;23.68;47.08;101633.03;16124087;19;133338;-62
2023/09/07 13:00:06;;;;;;;3.95;2.10;;;;;;;23.69;47.27;101628.25;16124866;19;130834;-63
2023/09/07 13:05:28;;;;;;;2.40;2.20;;;;;;;23.69;47.07;101619.88;16123663;19;129417;-63
2023/09/07 13:10:50;;;;;;;2.97;2.10;;;;;;;23.71;46.81;101623.25;16123094;19;129294;-63
2023/09/07 13:16:13;;;;;;;2.72;2.00;;;;;;;23.70;47.00;101608.44;16120466;19;131081;-63
2023/09/07 13:21:35;;;;;;;2.92;1.95;;;;;;;23.72;46.90;101613.78;16122958;19;129705;-63
2023/09/07 13:26:57;;;;;;;3.15;2.15;;;;;;;23.73;47.03;101607.91;16124499;19;129950;-63
2023/09/07 13:32:18;;;;;;;2.20;2.00;;;;;;;23.73;46.84;101601.50;16123023;19;129813;-63
2023/09/07 13:37:40;;;;;;;2.75;2.10;;;;;;;23.74;46.82;101600.41;16121258;19;129812;-62
2023/09/07 13:43:03;;;;;;;2.08;1.88;;;;;;;23.75;46.94;101599.28;16121942;19;129597;-62
2023/09/07 13:48:25;;;;;;;2.10;1.77;;;;;;;23.74;47.01;101586.44;16122941;19;129422;-62
2023/09/07 13:53:47;;;;;;;3.97;2.40;;;;;;;23.74;46.97;101589.22;16121084;19;129601;-62
2023/09/07 13:59:08;;;;;;;1.92;1.70;;;;;;;23.75;46.76;101588.13;16122200;19;129988;-62
2023/09/07 14:04:31;;;;;;;4.68;2.17;;;;;;;23.75;47.01;101583.34;16118867;19;131838;-63
2023/09/07 14:09:54;;;;;;;1.83;1.65;;;;;;;23.77;46.82;101585.88;16119105;19;130459;-62
2023/09/07 14:15:16;;;;;;;3.88;1.85;;;;;;;23.77;46.92;101591.47;16119340;19;129109;-62
2023/09/07 14:20:41;;;;;;;2.60;2.17;;;;;;;23.78;46.80;101587.56;16117610;19;130614;-62
2023/09/07 14:26:03;;;;;;;2.67;1.80;;;;;;;23.78;46.97;101580.03;16104098;19;135199;-62
2023/09/07 14:31:25;;;;;;;4.03;1.90;;;;;;;23.78;46.88;101579.19;16112167;19;130959;-62
2023/09/07 14:36:48;;;;;;;3.30;1.85;;;;;;;23.79;46.57;101578.94;16116320;19;130693;-62
2023/09/07 14:42:14;;;;;;;2.65;2.00;;;;;;;23.79;46.99;101567.75;16115192;19;129460;-62
2023/09/07 14:47:35;;;;;;;3.67;2.25;;;;;;;23.79;46.71;101578.06;16121016;19;129603;-61
2023/09/07 14:52:57;;;;;;;6.03;2.30;;;;;;;23.79;46.52;101575.28;16113238;19;130930;-63
2023/09/07 14:58:19;;;;;;;4.05;2.20;;;;;;;23.79;46.88;101569.69;16130880;19;130184;-62
2023/09/07 15:03:41;;;;;;;3.03;2.20;;;;;;;23.79;47.00;101570.56;16130753;19;129291;-61
2023/09/07 15:09:04;;;;;;;3.67;2.30;;;;;;;23.79;46.98;101558.50;16129588;19;134339;-61
2023/09/07 15:14:26;;;;;;;2.38;2.08;;;;;;;23.79;46.81;101556.56;16129396;19;130167;-62
2023/09/07 15:19:48;;;;;;;2.75;2.20;;;;;;;23.79;47.15;101550.13;16122863;19;132683;-62
2023/09/07 15:25:10;;;;;;;2.28;2.08;;;;;;;23.79;47.02;101544.53;16124065;19;131297;-63
2023/09/07 15:30:32;;;;;;;3.45;2.42;;;;;;;23.79;47.34;101544.53;16132489;19;131772;-64
2023/09/07 15:35:54;;;;;;;3.00;2.25;;;;;;;23.78;46.82;101543.72;16131437;19;130255;-65
2023/09/07 15:41:17;;;;;;;5.40;2.45;;;;;;;23.85;47.81;101542.63;16137487;19;131482;-65
2023/09/07 15:46:40;;;;;;;11.80;2.95;;;;;;;23.94;48.54;101546.59;16135311;19;129471;-60
2023/09/07 15:52:01;;;;;;;10.40;3.03;;;;;;;24.01;48.52;101535.19;16138203;19;130099;-61
2023/09/07 15:57:25;;;;;;;9.15;3.00;;;;;;;24.06;48.67;101538.88;16145162;19;130211;-65
2023/09/07 16:02:47;;;;;;;11.00;2.67;;;;;;;24.11;48.57;101526.91;16138001;19;129902;-62
2023/09/07 16:08:09;;;;;;;6.18;3.05;;;;;;;24.14;48.91;101534.72;16141537;19;129683;-60
2023/09/07 16:13:31;;;;;;;13.25;3.55;;;;;;;24.18;48.58;101529.47;16205601;19;128903;-63
2023/09/07 16:18:55;;;;;;;9.88;3.00;;;;;;;24.20;48.82;101527.22;16203725;19;128331;-64
2023/09/07 16:24:17;;;;;;;9.13;2.92;;;;;;;24.21;48.73;101534.50;16200705;19;128823;-63
2023/09/07 16:29:43;;;;;;;5.93;2.95;;;;;;;24.20;48.95;101528.06;16189631;19;128673;-70
2023/09/07 16:35:05;;;;;;;5.38;2.22;;;;;;;24.22;48.71;101525.84;16170399;19;130310;-60
2023/09/07 16:40:27;;;;;;;12.68;3.08;;;;;;;24.24;48.71;101537.66;16161573;19;129907;-62
2023/09/07 16:45:59;;;;;;;7.10;2.97;;;;;;;24.27;49.14;101537.09;16186664;19;129593;-65
2023/09/07 16:51:24;;;;;;;13.25;3.03;;;;;;;24.27;48.94;101542.69;16169873;19;129420;-60
2023/09/07 16:56:46;;;;;;;6.78;2.88;;;;;;;24.29;49.08;101544.38;16183342;19;130275;-65
2023/09/07 17:02:08;;;;;;;7.10;2.78;;;;;;;24.30;48.80;101549.72;16159795;19;131358;-62
2023/09/07 17:07:30;;;;;;;5.85;2.50;;;;;;;24.32;48.90;101546.63;16121971;19;129946;-66
2023/09/07 17:12:53;;;;;;;5.68;2.17;;;;;;;24.32;48.63;101552.22;16121694;19;129335;-62
2023/09/07 17:18:15;;;;;;;9.77;2.67;;;;;;;24.32;48.94;101543.84;16124073;19;130512;-64
2023/09/07 17:23:37;;;;;;;4.47;2.58;;;;;;;24.30;48.80;101538.53;16142458;19;129480;-64
2023/09/07 17:28:59;;;;;;;8.02;2.90;;;;;;;24.30;48.53;101537.66;16141079;19;130794;-64
2023/09/07 17:34:25;;;;;;;4.63;2.80;;;;;;;24.31;48.78;101528.16;16136687;19;129178;-64
2023/09/07 17:39:47;;;;;;;;;;;;;;;24.27;48.68;101528.69;16044704;19;129803;-65
2023/09/07 17:45:09;;;;;;;8.77;3.88;;;;;;;24.30;48.46;101532.06;16132632;19;130086;-65
2023/09/07 17:50:31;;;;;;;11.85;5.20;;;;;;;24.29;48.73;101530.38;16119717;19;129770;-59
2023/09/07 17:55:53;;;;;;;11.88;5.63;;;;;;;24.29;48.86;101530.38;16121586;19;130186;-60
2023/09/07 18:01:26;;;;;;;8.32;6.13;;;;;;;24.30;48.52;101529.28;16130977;19;131837;-58
2023/09/07 18:06:48;;;;;;;9.52;5.18;;;;;;;24.31;48.63;101533.75;16130040;19;130114;-64
2023/09/07 18:12:10;;;;;;;7.90;4.93;;;;;;;24.31;48.77;101550.53;16120891;19;129610;-63
2023/09/07 18:17:33;;;;;;;8.98;4.90;;;;;;;24.30;48.78;101541.31;16126652;19;130678;-62
2023/09/07 18:22:55;;;;;;;9.68;4.63;;;;;;;24.32;48.80;101550.25;16120538;19;130939;-66
2023/09/07 18:28:17;;;;;;;7.45;4.40;;;;;;;24.32;48.98;101546.63;16115047;19;130978;-63
2023/09/07 18:33:39;;;;;;;8.88;4.28;;;;;;;24.32;48.85;101557.81;16116464;19;129497;-64
2023/09/07 18:39:01;;;;;;;5.25;4.00;;;;;;;24.31;48.95;101562.53;16113091;19;129598;-61
2023/09/07 18:44:27;;;;;;;9.25;4.28;;;;;;;24.32;49.05;101563.41;16126508;19;133671;-63
2023/09/07 18:49:49;;;;;;;8.55;4.80;;;;;;;24.32;49.11;101560.63;16119791;19;130250;-64
2023/09/07 18:55:11;;;;;;;8.00;4.15;;;;;;;24.31;49.09;101553.34;16117409;19;129115;-58
2023/09/07 19:00:34;;;;;;;12.35;5.13;;;;;;;24.31;49.11;101561.72;16118218;19;129629;-64
2023/09/07 19:05:56;;;;;;;9.90;4.45;;;;;;;24.31;49.20;101553.34;16134706;19;129897;-59
2023/09/07 19:11:18;;;;;;;9.85;4.20;;;;;;;24.31;49.09;101558.91;16124151;19;129739;-67
2023/09/07 19:16:41;;;;;;;11.20;4.55;;;;;;;24.30;49.21;101551.66;16122064;19;129868;-61
2023/09/07 19:22:03;;;;;;;8.65;4.15;;;;;;;24.30;49.20;101548.84;16118361;19;129777;-66
2023/09/07 19:27:25;;;;;;;9.27;4.63;;;;;;;24.30;49.16;101549.72;16115649;19;131507;-60
2023/09/07 19:32:46;;;;;;;6.15;3.80;;;;;;;24.29;48.97;101550.81;16116315;19;131514;-63
2023/09/07 19:38:09;;;;;;;9.07;4.25;;;;;;;24.29;49.04;101552.75;16114536;19;131274;-63
2023/09/07 19:43:30;;;;;;;6.85;4.28;;;;;;;24.27;48.89;101555.84;16124687;19;131670;-61
2023/09/07 19:48:54;;;;;;;6.35;4.72;;;;;;;24.26;49.01;101557.78;16128780;19;129838;-64
2023/09/07 19:54:16;;;;;;;5.85;3.88;;;;;;;24.26;48.97;101563.38;16129165;19;129356;-64
2023/09/07 19:59:39;;;;;;;6.20;4.43;;;;;;;24.21;48.63;101554.94;16127099;19;129627;-69
2023/09/07 20:05:01;;;;;;;7.88;4.10;;;;;;;24.21;48.91;101565.25;16131495;19;130376;-71
2023/09/07 20:10:24;;;;;;;11.68;4.80;;;;;;;24.20;48.74;101561.63;16127555;19;129418;-63
2023/09/07 20:15:46;;;;;;;4.80;4.05;;;;;;;24.20;48.81;101572.81;16123857;19;130823;-66
2023/09/07 20:21:08;;;;;;;8.27;4.50;;;;;;;24.19;48.73;101576.72;16121074;19;129849;-64
2023/09/07 20:26:30;;;;;;;7.53;4.63;;;;;;;24.19;48.62;101578.66;16115514;19;129793;-66
2023/09/07 20:31:59;;;;;;;11.20;5.53;;;;;;;24.17;48.43;101575.31;16129423;19;131141;-66
2023/09/07 20:37:21;;;;;;;15.00;6.70;;;;;;;24.13;48.70;101572.19;16120880;19;129705;-67
2023/09/07 20:42:43;;;;;;;17.98;7.43;;;;;;;24.10;48.32;101575.53;16118662;19;132129;-66
2023/09/07 20:48:05;;;;;;;17.17;7.35;;;;;;;24.08;48.38;101575.78;16116772;19;130785;-68
2023/09/07 20:53:27;;;;;;;16.73;7.32;;;;;;;24.07;48.17;101573.28;16117501;19;131123;-70
2023/09/07 20:58:49;;;;;;;16.98;7.05;;;;;;;24.06;47.95;101577.16;16121789;19;130806;-69
2023/09/07 21:04:11;;;;;;;14.70;6.63;;;;;;;24.04;48.14;101580.25;16120480;19;129886;-70
2023/09/07 21:09:33;;;;;;;15.75;6.88;;;;;;;24.04;48.16;101574.66;16118179;19;131114;-68
2023/09/07 21:14:55;;;;;;;14.80;7.15;;;;;;;24.03;48.08;101584.16;16120962;19;131237;-69
2023/09/07 21:20:17;;;;;;;16.00;7.03;;;;;;;24.02;48.18;101578.81;16118480;19;130293;-69
2023/09/07 21:25:39;;;;;;;15.68;7.28;;;;;;;24.01;48.16;101579.91;16114010;19;130934;-68
2023/09/07 21:31:02;;;;;;;15.77;6.80;;;;;;;24.01;48.38;101577.13;16118134;19;129800;-69
2023/09/07 21:36:24;;;;;;;14.95;6.38;;;;;;;23.99;48.15;101577.41;16118077;19;129351;-69
2023/09/07 21:41:51;;;;;;;15.98;6.95;;;;;;;23.98;48.37;101586.91;16121813;19;129553;-68
2023/09/07 21:47:13;;;;;;;11.43;6.55;;;;;;;23.96;48.55;101584.38;16117905;19;130021;-69
2023/09/07 21:52:35;;;;;;;11.77;6.43;;;;;;;23.96;48.07;101573.19;16115091;19;129927;-68
2023/09/07 21:57:57;;;;;;;13.13;6.65;;;;;;;23.94;48.46;101581.00;16118795;19;129352;-68
2023/09/07 22:03:19;;;;;;;11.82;6.50;;;;;;;23.94;48.33;101589.38;16117197;19;130837;-69
2023/09/07 22:08:41;;;;;;;11.20;6.35;;;;;;;23.94;48.01;101575.41;16117585;19;129756;-69
2023/09/07 22:14:04;;;;;;;10.60;6.20;;;;;;;23.92;48.22;101572.03;16115709;19;132991;-70
2023/09/07 22:19:26;;;;;;;13.07;6.28;;;;;;;23.92;48.23;101574.00;16115998;19;129915;-71
2023/09/07 22:24:48;;;;;;;12.30;6.20;;;;;;;23.91;48.09;101578.72;16115153;19;131287;-70
2023/09/07 22:30:10;;;;;;;10.80;6.20;;;;;;;23.90;48.25;101568.66;16113437;19;130636;-69
2023/09/07 22:35:33;;;;;;;11.23;6.45;;;;;;;23.90;48.22;101568.66;16110068;19;129871;-70
2023/09/07 22:40:56;;;;;;;13.95;6.30;;;;;;;23.88;48.40;101565.28;16111422;19;132912;-69
2023/09/07 22:46:18;;;;;;;14.98;6.35;;;;;;;23.87;48.64;101566.44;16111069;19;129567;-69
2023/09/07 22:51:40;;;;;;;10.75;6.25;;;;;;;23.86;48.38;101567.53;16110180;19;129992;-71
2023/09/07 22:57:02;;;;;;;8.40;5.38;;;;;;;23.85;48.54;101565.84;16114974;19;130578;-70
2023/09/07 23:02:25;;;;;;;11.48;5.70;;;;;;;23.85;48.42;101565.84;16110978;19;129460;-69
2023/09/07 23:07:47;;;;;;;10.60;5.78;;;;;;;23.83;48.27;101573.66;16113983;19;130406;-69
2023/09/07 23:13:09;;;;;;;11.63;5.57;;;;;;;23.83;48.19;101576.44;16116126;19;129173;-71
2023/09/07 23:18:31;;;;;;;9.13;5.53;;;;;;;23.81;48.15;101567.47;16133194;19;129056;-71
2023/09/07 23:23:54;;;;;;;10.63;5.72;;;;;;;23.80;48.51;101582.56;16131856;19;129227;-69
2023/09/07 23:29:16;;;;;;;8.25;5.63;;;;;;;23.79;48.32;101586.44;16133736;19;129076;-72
2023/09/07 23:34:38;;;;;;;9.85;5.65;;;;;;;23.78;48.49;101580.03;16137724;19;129301;-68
2023/09/07 23:40:01;;;;;;;7.55;4.70;;;;;;;23.78;48.53;101585.63;16135290;19;128841;-72
2023/09/07 23:45:23;;;;;;;8.43;5.43;;;;;;;23.77;48.56;101585.88;16134425;19;129196;-72
2023/09/07 23:50:44;;;;;;;10.68;5.22;;;;;;;23.76;48.53;101584.19;16135756;19;129054;-72
2023/09/07 23:56:06;;;;;;;8.68;4.88;;;;;;;23.75;48.45;101585.31;16136679;19;130352;-72
